Time;durP1;ratioP1;P1;durP2;ratioP2;P2;SDS_P1;SDS_P2;PMS_P1;PMS_P2;Temp;Humidity;BMP_temperature;BMP_pressure;BME280_temperature;BME280_humidity;BME280_pressure;Samples;Min_cycle;Max_cycle;Signal;HPM_P1;HPM_P2
2023/08/12 00:00:29;;;;;;;4.37;2.17;;;;;;;;;;5083500;28;20432;-78
2023/08/12 00:02:58;;;;;;;4.10;2.50;;;;;;;;;;5084693;28;20456;-78
2023/08/12 00:05:26;;;;;;;4.80;2.40;;;;;;;;;;5083481;28;20453;-79
2023/08/12 00:07:54;;;;;;;4.40;2.53;;;;;;;;;;5083703;28;20460;-78
2023/08/12 00:10:21;;;;;;;5.80;1.90;;;;;;;;;;5087803;28;20498;-77
2023/08/12 00:12:50;;;;;;;3.00;2.03;;;;;;;;;;5085114;28;20487;-79
2023/08/12 00:15:21;;;;;;;4.20;2.30;;;;;;;;;;5084420;28;20440;-79
2023/08/12 00:17:50;;;;;;;3.90;2.20;;;;;;;;;;5084354;28;20467;-77
2023/08/12 00:20:19;;;;;;;6.67;2.60;;;;;;;;;;5086537;28;20533;-79
2023/08/12 00:22:47;;;;;;;5.00;2.50;;;;;;;;;;5084264;28;20456;-78
2023/08/12 00:25:16;;;;;;;3.63;2.43;;;;;;;;;;5085011;28;20452;-78
2023/08/12 00:27:44;;;;;;;3.37;2.00;;;;;;;;;;5086117;28;20550;-79
2023/08/12 00:30:47;;;;;;;3.63;3.03;;;;;;;;;;5085516;28;20494;-78
2023/08/12 00:33:18;;;;;;;4.43;2.57;;;;;;;;;;5081544;28;20462;-80
2023/08/12 00:35:48;;;;;;;4.97;2.47;;;;;;;;;;5085725;28;20509;-79
2023/08/12 00:38:17;;;;;;;3.10;2.30;;;;;;;;;;5084979;28;20468;-78
2023/08/12 00:40:44;;;;;;;3.93;2.50;;;;;;;;;;5084631;28;20452;-79
2023/08/12 00:43:13;;;;;;;3.13;2.27;;;;;;;;;;5085125;28;20453;-80
2023/08/12 00:45:42;;;;;;;3.93;2.17;;;;;;;;;;5086506;28;20437;-78
2023/08/12 00:48:12;;;;;;;4.87;2.27;;;;;;;;;;5085953;28;20476;-78
2023/08/12 00:50:44;;;;;;;2.70;2.07;;;;;;;;;;5086084;28;20514;-77
2023/08/12 00:53:13;;;;;;;3.77;2.30;;;;;;;;;;5084679;28;20525;-79
2023/08/12 00:55:41;;;;;;;4.60;2.77;;;;;;;;;;5085782;28;20457;-79
2023/08/12 00:58:10;;;;;;;6.47;2.37;;;;;;;;;;5086188;28;21572;-79
2023/08/12 01:00:39;;;;;;;6.80;2.33;;;;;;;;;;5085797;28;20529;-79
2023/08/12 01:03:08;;;;;;;4.80;3.00;;;;;;;;;;5080637;28;20543;-77
2023/08/12 01:05:37;;;;;;;5.33;2.43;;;;;;;;;;5078798;28;20456;-78
2023/08/12 01:08:06;;;;;;;4.17;2.43;;;;;;;;;;5079628;28;20586;-78
2023/08/12 01:10:37;;;;;;;3.00;2.50;;;;;;;;;;5079199;28;20484;-78
2023/08/12 01:13:09;;;;;;;3.73;2.50;;;;;;;;;;5078487;28;20443;-78
2023/08/12 01:15:37;;;;;;;3.83;2.60;;;;;;;;;;5080138;28;20821;-78
2023/08/12 01:18:07;;;;;;;6.50;2.80;;;;;;;;;;5081758;28;20734;-79
2023/08/12 01:20:35;;;;;;;3.77;3.03;;;;;;;;;;5083594;28;20491;-78
2023/08/12 01:23:10;;;;;;;4.97;3.20;;;;;;;;;;5080922;28;20722;-78
2023/08/12 01:25:38;;;;;;;3.93;2.53;;;;;;;;;;5079512;28;20611;-78
2023/08/12 01:28:07;;;;;;;3.90;2.50;;;;;;;;;;5087495;28;20628;-78
2023/08/12 01:30:36;;;;;;;3.57;2.17;;;;;;;;;;5090591;28;20466;-78
2023/08/12 01:33:08;;;;;;;4.90;2.27;;;;;;;;;;5089098;28;20490;-78
2023/08/12 01:35:38;;;;;;;6.57;2.83;;;;;;;;;;5089645;28;20533;-78
2023/08/12 01:38:08;;;;;;;4.40;2.17;;;;;;;;;;5090758;28;20448;-78
2023/08/12 01:57:41;;;;;;;;;;;;;;;;;;;;;
2023/08/12 02:06:30;;;;;;;3.90;2.33;;;;;;;;;;5080151;28;20482;-74
2023/08/12 04:33:30;;;;;;;5.00;2.60;;;;;;;;;;5028894;28;20564;-76
2023/08/12 04:57:02;;;;;;;;;;;;;;;;;;;;;
2023/08/12 05:13:16;;;;;;;;;;;;;;;;;;;;;
2023/08/12 05:29:59;;;;;;;5.47;2.77;;;;;;;;;;5035913;28;20210;-77
2023/08/12 18:15:11;;;;;;;2.97;1.00;;;;;;;;;;5075968;22;20475;-79
2023/08/12 18:17:40;;;;;;;2.30;1.00;;;;;;;;;;5016892;28;20482;-78
2023/08/12 18:20:15;;;;;;;2.90;1.47;;;;;;;;;;5017554;28;20553;-79
2023/08/12 18:22:43;;;;;;;2.73;1.40;;;;;;;;;;5015413;28;20443;-78
2023/08/12 18:25:13;;;;;;;2.20;1.27;;;;;;;;;;5018220;28;20797;-78
2023/08/12 18:27:41;;;;;;;3.70;2.20;;;;;;;;;;5021993;28;20664;-78
2023/08/12 18:30:09;;;;;;;2.10;1.10;;;;;;;;;;5022246;28;20854;-78
2023/08/12 18:32:53;;;;;;;1.93;1.03;;;;;;;;;;5023338;28;20489;-78
2023/08/12 18:35:23;;;;;;;2.20;1.17;;;;;;;;;;5020602;28;20490;-77
2023/08/12 18:37:56;;;;;;;2.23;1.10;;;;;;;;;;5026081;28;20505;-78
2023/08/12 18:40:28;;;;;;;2.37;1.30;;;;;;;;;;5025072;28;20426;-80
2023/08/12 18:42:55;;;;;;;3.70;1.50;;;;;;;;;;5021602;28;20917;-77
2023/08/12 18:45:23;;;;;;;3.50;1.83;;;;;;;;;;5022019;28;20474;-78
2023/08/12 18:47:51;;;;;;;2.10;1.20;;;;;;;;;;5022617;28;20443;-78
2023/08/12 18:50:19;;;;;;;3.27;1.70;;;;;;;;;;5019610;28;20530;-78
2023/08/12 18:52:48;;;;;;;2.37;0.90;;;;;;;;;;5018662;28;20479;-78
2023/08/12 18:55:15;;;;;;;2.97;1.40;;;;;;;;;;5023028;28;20458;-78
2023/08/12 18:57:43;;;;;;;2.00;1.07;;;;;;;;;;5026153;28;20507;-80
2023/08/12 19:00:15;;;;;;;2.00;1.03;;;;;;;;;;5034477;28;20523;-77
2023/08/12 19:02:43;;;;;;;4.13;1.03;;;;;;;;;;5042120;28;20442;-76
2023/08/12 19:05:11;;;;;;;2.80;1.00;;;;;;;;;;5038989;28;20551;-78
2023/08/12 19:27:26;;;;;;;;;;;;;;;;;;;;;
